sensor_id;sensor_type;location;lat;lon;timestamp;pressure;altitude;pressure_sealevel;temperature;humidity
49825;BME280;35714;55.708;37.478;2023-11-22T00:00:05;99325.16;;;-6.79;54.61
49825;BME280;35714;55.708;37.478;2023-11-22T00:02:34;99330.69;;;-6.82;54.58
49825;BME280;35714;55.708;37.478;2023-11-22T00:05:00;99323.03;;;-6.85;54.81
49825;BME280;35714;55.708;37.478;2023-11-22T00:07:26;99323.50;;;-6.80;54.96
49825;BME280;35714;55.708;37.478;2023-11-22T00:09:55;99328.41;;;-6.76;54.63
49825;BME280;35714;55.708;37.478;2023-11-22T00:12:21;99323.69;;;-6.72;54.73
49825;BME280;35714;55.708;37.478;2023-11-22T00:14:49;99331.81;;;-6.64;54.43
49825;BME280;35714;55.708;37.478;2023-11-22T00:17:15;99333.81;;;-6.56;54.91
49825;BME280;35714;55.708;37.478;2023-11-22T00:19:46;99323.56;;;-6.49;54.58
49825;BME280;35714;55.708;37.478;2023-11-22T00:22:12;99322.13;;;-6.42;54.71
49825;BME280;35714;55.708;37.478;2023-11-22T00:24:40;99328.53;;;-6.35;54.30
49825;BME280;35714;55.708;37.478;2023-11-22T00:27:07;99324.69;;;-6.31;54.47
49825;BME280;35714;55.708;37.478;2023-11-22T00:29:34;99318.88;;;-6.25;54.35
49825;BME280;35714;55.708;37.478;2023-11-22T00:32:00;99322.69;;;-6.18;54.44
49825;BME280;35714;55.708;37.478;2023-11-22T00:34:26;99322.03;;;-6.10;54.17
49825;BME280;35714;55.708;37.478;2023-11-22T00:36:52;99306.78;;;-6.06;53.97
49825;BME280;35714;55.708;37.478;2023-11-22T00:39:18;99313.44;;;-6.02;54.34
49825;BME280;35714;55.708;37.478;2023-11-22T00:41:45;99314.56;;;-5.95;54.26
49825;BME280;35714;55.708;37.478;2023-11-22T00:44:11;99323.63;;;-5.88;54.13
49825;BME280;35714;55.708;37.478;2023-11-22T00:46:37;99312.22;;;-5.88;53.50
49825;BME280;35714;55.708;37.478;2023-11-22T00:49:03;99318.78;;;-5.83;53.68
49825;BME280;35714;55.708;37.478;2023-11-22T00:51:31;99314.47;;;-5.84;53.37
49825;BME280;35714;55.708;37.478;2023-11-22T00:54:00;99318.78;;;-5.83;53.31
49825;BME280;35714;55.708;37.478;2023-11-22T00:56:26;99322.13;;;-5.81;53.48
49825;BME280;35714;55.708;37.478;2023-11-22T00:58:53;99323.28;;;-5.73;53.24
49825;BME280;35714;55.708;37.478;2023-11-22T01:01:20;99308.56;;;-5.66;53.27
49825;BME280;35714;55.708;37.478;2023-11-22T01:03:45;99315.25;;;-5.62;53.28
49825;BME280;35714;55.708;37.478;2023-11-22T01:06:13;99309.69;;;-5.59;53.26
49825;BME280;35714;55.708;37.478;2023-11-22T01:08:39;99304.41;;;-5.59;52.90
49825;BME280;35714;55.708;37.478;2023-11-22T01:11:05;99299.13;;;-5.59;52.95
49825;BME280;35714;55.708;37.478;2023-11-22T01:13:32;99315.69;;;-5.57;53.07
49825;BME280;35714;55.708;37.478;2023-11-22T01:15:59;99309.44;;;-5.56;52.99
49825;BME280;35714;55.708;37.478;2023-11-22T01:18:24;99302.50;;;-5.47;52.64
49825;BME280;35714;55.708;37.478;2023-11-22T01:20:50;99301.41;;;-5.45;52.34
49825;BME280;35714;55.708;37.478;2023-11-22T01:23:16;99306.69;;;-5.45;52.58
49825;BME280;35714;55.708;37.478;2023-11-22T01:25:42;99298.88;;;-5.46;52.66
49825;BME280;35714;55.708;37.478;2023-11-22T01:28:08;99293.19;;;-5.51;52.75
49825;BME280;35714;55.708;37.478;2023-11-22T01:30:36;99298.63;;;-5.43;52.82
49825;BME280;35714;55.708;37.478;2023-11-22T01:33:04;99304.03;;;-5.45;52.49
49825;BME280;35714;55.708;37.478;2023-11-22T01:35:30;99299.91;;;-5.37;52.89
49825;BME280;35714;55.708;37.478;2023-11-22T01:37:56;99296.44;;;-5.28;52.76
49825;BME280;35714;55.708;37.478;2023-11-22T01:40:23;99298.09;;;-5.27;52.67
49825;BME280;35714;55.708;37.478;2023-11-22T01:42:51;99302.84;;;-5.21;52.67
49825;BME280;35714;55.708;37.478;2023-11-22T01:45:17;99306.88;;;-5.17;52.85
49825;BME280;35714;55.708;37.478;2023-11-22T01:47:44;99303.25;;;-5.16;52.94
49825;BME280;35714;55.708;37.478;2023-11-22T01:50:10;99308.66;;;-5.17;52.47
49825;BME280;35714;55.708;37.478;2023-11-22T01:52:36;99304.25;;;-5.17;52.68
49825;BME280;35714;55.708;37.478;2023-11-22T01:55:04;99306.59;;;-5.14;52.76
49825;BME280;35714;55.708;37.478;2023-11-22T01:57:31;99303.97;;;-5.14;52.61
49825;BME280;35714;55.708;37.478;2023-11-22T02:00:03;99303.97;;;-5.14;52.76
49825;BME280;35714;55.708;37.478;2023-11-22T02:02:39;99308.41;;;-5.14;52.47
49825;BME280;35714;55.708;37.478;2023-11-22T02:05:05;99307.03;;;-5.18;52.39
49825;BME280;35714;55.708;37.478;2023-11-22T02:07:31;99305.59;;;-5.22;52.33
49825;BME280;35714;55.708;37.478;2023-11-22T02:09:58;99312.97;;;-5.26;52.44
49825;BME280;35714;55.708;37.478;2023-11-22T02:12:24;99313.38;;;-5.31;52.79
49825;BME280;35714;55.708;37.478;2023-11-22T02:14:50;99315.47;;;-5.34;52.74
49825;BME280;35714;55.708;37.478;2023-11-22T02:17:16;99296.38;;;-5.48;52.61
49825;BME280;35714;55.708;37.478;2023-11-22T02:19:43;99310.88;;;-5.42;52.82
49825;BME280;35714;55.708;37.478;2023-11-22T02:22:17;99312.53;;;-5.41;52.81
49825;BME280;35714;55.708;37.478;2023-11-22T02:24:44;99310.28;;;-5.46;52.72
49825;BME280;35714;55.708;37.478;2023-11-22T02:27:10;99306.94;;;-5.48;52.92
49825;BME280;35714;55.708;37.478;2023-11-22T02:29:37;99303.63;;;-5.50;53.11
49825;BME280;35714;55.708;37.478;2023-11-22T02:32:03;99306.00;;;-5.47;52.93
49825;BME280;35714;55.708;37.478;2023-11-22T02:34:31;99312.66;;;-5.43;53.06
49825;BME280;35714;55.708;37.478;2023-11-22T02:36:57;99309.75;;;-5.39;52.95
49825;BME280;35714;55.708;37.478;2023-11-22T02:39:29;99313.66;;;-5.44;52.60
49825;BME280;35714;55.708;37.478;2023-11-22T02:41:58;99301.09;;;-5.51;52.66
49825;BME280;35714;55.708;37.478;2023-11-22T02:44:24;99314.72;;;-5.56;52.85
49825;BME280;35714;55.708;37.478;2023-11-22T02:46:50;99306.22;;;-5.59;52.99
49825;BME280;35714;55.708;37.478;2023-11-22T02:49:16;99299.41;;;-5.62;53.12
49825;BME280;35714;55.708;37.478;2023-11-22T02:51:41;99306.50;;;-5.63;53.15
49825;BME280;35714;55.708;37.478;2023-11-22T02:54:07;99322.91;;;-5.59;53.28
49825;BME280;35714;55.708;37.478;2023-11-22T02:56:33;99326.13;;;-5.55;53.05
49825;BME280;35714;55.708;37.478;2023-11-22T02:58:59;99334.16;;;-5.57;53.04
49825;BME280;35714;55.708;37.478;2023-11-22T03:01:25;99324.13;;;-5.63;52.84
49825;BME280;35714;55.708;37.478;2023-11-22T03:03:51;99317.72;;;-5.70;53.02
49825;BME280;35714;55.708;37.478;2023-11-22T03:06:17;99319.66;;;-5.72;53.70
49825;BME280;35714;55.708;37.478;2023-11-22T03:08:43;99319.38;;;-5.69;53.31
49825;BME280;35714;55.708;37.478;2023-11-22T03:11:10;99323.00;;;-5.70;53.46
49825;BME280;35714;55.708;37.478;2023-11-22T03:13:36;99324.41;;;-5.66;53.28
49825;BME280;35714;55.708;37.478;2023-11-22T03:16:02;99325.13;;;-5.64;52.99
49825;BME280;35714;55.708;37.478;2023-11-22T03:18:29;99326.66;;;-5.62;53.47
49825;BME280;35714;55.708;37.478;2023-11-22T03:20:55;99328.03;;;-5.67;53.47
49825;BME280;35714;55.708;37.478;2023-11-22T03:23:21;99322.75;;;-5.67;53.10
49825;BME280;35714;55.708;37.478;2023-11-22T03:25:48;99322.75;;;-5.67;53.03
49825;BME280;35714;55.708;37.478;2023-11-22T03:28:14;99302.69;;;-5.80;53.29
49825;BME280;35714;55.708;37.478;2023-11-22T03:30:40;99321.34;;;-5.71;53.02
49825;BME280;35714;55.708;37.478;2023-11-22T03:33:06;99335.50;;;-5.72;52.79
49825;BME280;35714;55.708;37.478;2023-11-22T03:35:32;99327.16;;;-5.77;52.60
49825;BME280;35714;55.708;37.478;2023-11-22T03:37:58;99316.84;;;-5.81;52.89
49825;BME280;35714;55.708;37.478;2023-11-22T03:40:23;99321.16;;;-5.80;52.78
49825;BME280;35714;55.708;37.478;2023-11-22T03:42:49;99318.13;;;-5.75;52.96
49825;BME280;35714;55.708;37.478;2023-11-22T03:45:15;99324.94;;;-5.72;52.84
49825;BME280;35714;55.708;37.478;2023-11-22T03:47:41;99322.03;;;-5.69;52.82
49825;BME280;35714;55.708;37.478;2023-11-22T03:50:07;99323.72;;;-5.68;52.56
49825;BME280;35714;55.708;37.478;2023-11-22T03:52:33;99328.44;;;-5.72;52.62
49825;BME280;35714;55.708;37.478;2023-11-22T03:54:58;99332.44;;;-5.77;52.57
49825;BME280;35714;55.708;37.478;2023-11-22T03:57:25;99336.03;;;-5.78;52.39
49825;BME280;35714;55.708;37.478;2023-11-22T03:59:50;99337.13;;;-5.81;52.43
49825;BME280;35714;55.708;37.478;2023-11-22T04:02:16;99339.66;;;-5.80;52.43
49825;BME280;35714;55.708;37.478;2023-11-22T04:04:42;99337.13;;;-5.81;52.66
49825;BME280;35714;55.708;37.478;2023-11-22T04:07:08;99334.50;;;-5.81;52.32
49825;BME280;35714;55.708;37.478;2023-11-22T04:09:34;99339.66;;;-5.80;52.75
49825;BME280;35714;55.708;37.478;2023-11-22T04:12:00;99337.44;;;-5.74;52.53
49825;BME280;35714;55.708;37.478;2023-11-22T04:14:26;99336.47;;;-5.73;52.42
49825;BME280;35714;55.708;37.478;2023-11-22T04:16:53;99336.75;;;-5.76;52.09
49825;BME280;35714;55.708;37.478;2023-11-22T04:19:19;99337.44;;;-5.74;52.38
49825;BME280;35714;55.708;37.478;2023-11-22T04:21:44;99337.19;;;-5.71;52.61
49825;BME280;35714;55.708;37.478;2023-11-22T04:24:10;99343.41;;;-5.72;52.32
49825;BME280;35714;55.708;37.478;2023-11-22T04:26:38;99335.63;;;-5.74;52.77
49825;BME280;35714;55.708;37.478;2023-11-22T04:29:04;99336.09;;;-5.69;52.72
49825;BME280;35714;55.708;37.478;2023-11-22T04:31:30;99345.78;;;-5.69;52.18
49825;BME280;35714;55.708;37.478;2023-11-22T04:33:56;99339.56;;;-5.68;52.34
49825;BME280;35714;55.708;37.478;2023-11-22T04:36:23;99341.38;;;-5.69;52.55
49825;BME280;35714;55.708;37.478;2023-11-22T04:38:49;99339.69;;;-5.70;52.35
49825;BME280;35714;55.708;37.478;2023-11-22T04:41:15;99331.63;;;-5.68;52.31
49825;BME280;35714;55.708;37.478;2023-11-22T04:43:42;99328.84;;;-5.67;52.39
49825;BME280;35714;55.708;37.478;2023-11-22T04:46:10;99340.25;;;-5.66;52.49
49825;BME280;35714;55.708;37.478;2023-11-22T04:48:36;99334.28;;;-5.68;52.61
49825;BME280;35714;55.708;37.478;2023-11-22T04:51:04;99334.97;;;-5.66;52.35
49825;BME280;35714;55.708;37.478;2023-11-22T04:53:31;99346.94;;;-5.62;52.50
49825;BME280;35714;55.708;37.478;2023-11-22T04:55:58;99342.88;;;-5.66;52.62
49825;BME280;35714;55.708;37.478;2023-11-22T04:58:25;99339.59;;;-5.58;52.59
49825;BME280;35714;55.708;37.478;2023-11-22T05:00:51;99342.63;;;-5.63;52.32
49825;BME280;35714;55.708;37.478;2023-11-22T05:03:17;99355.81;;;-5.63;52.22
49825;BME280;35714;55.708;37.478;2023-11-22T05:05:42;99344.13;;;-5.70;52.47
49825;BME280;35714;55.708;37.478;2023-11-22T05:08:08;99358.56;;;-5.74;52.77
49825;BME280;35714;55.708;37.478;2023-11-22T05:10:34;99356.34;;;-5.69;52.83
49825;BME280;35714;55.708;37.478;2023-11-22T05:13:00;99356.63;;;-5.72;52.41
49825;BME280;35714;55.708;37.478;2023-11-22T05:15:27;99354.50;;;-5.78;51.89
49825;BME280;35714;55.708;37.478;2023-11-22T05:17:53;99362.69;;;-5.82;51.86
49825;BME280;35714;55.708;37.478;2023-11-22T05:20:19;99375.72;;;-5.90;52.09
49825;BME280;35714;55.708;37.478;2023-11-22T05:22:45;99372.38;;;-5.92;52.09
49825;BME280;35714;55.708;37.478;2023-11-22T05:25:10;99363.19;;;-5.97;52.41
49825;BME280;35714;55.708;37.478;2023-11-22T05:27:36;99370.69;;;-5.93;52.24
49825;BME280;35714;55.708;37.478;2023-11-22T05:30:03;99359.31;;;-5.93;52.70
49825;BME280;35714;55.708;37.478;2023-11-22T05:32:31;99363.50;;;-5.91;52.35
49825;BME280;35714;55.708;37.478;2023-11-22T05:34:56;99366.16;;;-5.91;52.54
49825;BME280;35714;55.708;37.478;2023-11-22T05:37:23;99367.94;;;-5.91;52.37
49825;BME280;35714;55.708;37.478;2023-11-22T05:39:48;99370.69;;;-5.93;51.94
49825;BME280;35714;55.708;37.478;2023-11-22T05:42:14;99379.91;;;-5.97;52.18
49825;BME280;35714;55.708;37.478;2023-11-22T05:44:40;99369.84;;;-6.03;51.75
49825;BME280;35714;55.708;37.478;2023-11-22T05:47:06;99374.03;;;-6.01;52.38
49825;BME280;35714;55.708;37.478;2023-11-22T05:49:34;99366.50;;;-6.05;52.24
49825;BME280;35714;55.708;37.478;2023-11-22T05:51:59;99381.81;;;-5.99;52.19
49825;BME280;35714;55.708;37.478;2023-11-22T05:54:25;99375.56;;;-5.98;52.40
49825;BME280;35714;55.708;37.478;2023-11-22T05:56:52;99375.03;;;-5.92;52.68
49825;BME280;35714;55.708;37.478;2023-11-22T05:59:17;99369.91;;;-5.84;52.54
49825;BME280;35714;55.708;37.478;2023-11-22T06:01:43;99374.16;;;-5.71;52.69
49825;BME280;35714;55.708;37.478;2023-11-22T06:04:09;99370.81;;;-5.73;52.13
49825;BME280;35714;55.708;37.478;2023-11-22T06:06:36;99382.25;;;-5.63;52.50
49825;BME280;35714;55.708;37.478;2023-11-22T06:09:02;99370.56;;;-5.70;52.19
49825;BME280;35714;55.708;37.478;2023-11-22T06:11:31;99379.72;;;-5.65;52.16
49825;BME280;35714;55.708;37.478;2023-11-22T06:13:57;99377.22;;;-5.66;52.11
49825;BME280;35714;55.708;37.478;2023-11-22T06:16:23;99391.69;;;-5.70;52.04
49825;BME280;35714;55.708;37.478;2023-11-22T06:18:49;99382.47;;;-5.76;52.19
49825;BME280;35714;55.708;37.478;2023-11-22T06:21:14;99384.41;;;-5.78;52.14
49825;BME280;35714;55.708;37.478;2023-11-22T06:23:40;99388.31;;;-5.72;52.39
49825;BME280;35714;55.708;37.478;2023-11-22T06:26:06;99399.13;;;-5.75;51.74
49825;BME280;35714;55.708;37.478;2023-11-22T06:28:32;99387.44;;;-5.83;51.94
49825;BME280;35714;55.708;37.478;2023-11-22T06:30:58;99385.75;;;-5.84;51.77
49825;BME280;35714;55.708;37.478;2023-11-22T06:33:23;99382.69;;;-5.89;51.50
49825;BME280;35714;55.708;37.478;2023-11-22T06:35:50;99394.94;;;-5.88;51.59
49825;BME280;35714;55.708;37.478;2023-11-22T06:38:15;99389.50;;;-5.86;51.72
49825;BME280;35714;55.708;37.478;2023-11-22T06:40:42;99393.69;;;-5.84;51.43
49825;BME280;35714;55.708;37.478;2023-11-22T06:43:08;99392.97;;;-5.86;51.08
49825;BME280;35714;55.708;37.478;2023-11-22T06:45:33;99393.09;;;-5.97;51.23
49825;BME280;35714;55.708;37.478;2023-11-22T06:48:00;99391.22;;;-6.06;51.35
49825;BME280;35714;55.708;37.478;2023-11-22T06:50:27;99391.50;;;-6.09;51.05
49825;BME280;35714;55.708;37.478;2023-11-22T06:52:53;99399.22;;;-6.18;51.36
49825;BME280;35714;55.708;37.478;2023-11-22T06:55:19;99386.53;;;-6.24;51.36
49825;BME280;35714;55.708;37.478;2023-11-22T06:57:45;99394.19;;;-6.21;51.47
49825;BME280;35714;55.708;37.478;2023-11-22T07:00:12;99405.19;;;-6.15;51.42
49825;BME280;35714;55.708;37.478;2023-11-22T07:02:38;99404.81;;;-6.11;51.75
49825;BME280;35714;55.708;37.478;2023-11-22T07:05:06;99406.22;;;-6.07;50.93
49825;BME280;35714;55.708;37.478;2023-11-22T07:07:36;99413.47;;;-5.99;51.29
49825;BME280;35714;55.708;37.478;2023-11-22T07:10:03;99415.16;;;-5.98;50.92
49825;BME280;35714;55.708;37.478;2023-11-22T07:12:32;99417.53;;;-5.95;51.01
49825;BME280;35714;55.708;37.478;2023-11-22T07:15:01;99417.69;;;-5.96;50.65
49825;BME280;35714;55.708;37.478;2023-11-22T07:17:31;99420.16;;;-5.95;50.71
49825;BME280;35714;55.708;37.478;2023-11-22T07:19:59;99423.38;;;-5.91;50.84
49825;BME280;35714;55.708;37.478;2023-11-22T07:22:27;99424.94;;;-5.89;50.74
49825;BME280;35714;55.708;37.478;2023-11-22T07:24:56;99423.97;;;-5.88;50.85
49825;BME280;35714;55.708;37.478;2023-11-22T07:27:25;99436.09;;;-5.75;50.60
49825;BME280;35714;55.708;37.478;2023-11-22T07:29:51;99413.75;;;-5.71;50.72
49825;BME280;35714;55.708;37.478;2023-11-22T07:32:18;99428.81;;;-5.62;49.74
49825;BME280;35714;55.708;37.478;2023-11-22T07:34:46;99418.72;;;-5.47;49.48
49825;BME280;35714;55.708;37.478;2023-11-22T07:37:13;99426.22;;;-4.81;48.92
49825;BME280;35714;55.708;37.478;2023-11-22T07:39:40;99427.84;;;-3.82;49.07
49825;BME280;35714;55.708;37.478;2023-11-22T07:42:08;99432.69;;;-2.65;46.81
49825;BME280;35714;55.708;37.478;2023-11-22T07:44:35;99423.53;;;-1.72;45.05
49825;BME280;35714;55.708;37.478;2023-11-22T07:47:04;99434.53;;;-1.06;43.34
49825;BME280;35714;55.708;37.478;2023-11-22T07:49:34;99427.03;;;-0.68;41.86
49825;BME280;35714;55.708;37.478;2023-11-22T07:52:05;99415.09;;;-0.40;41.40
49825;BME280;35714;55.708;37.478;2023-11-22T07:54:32;99420.25;;;0.36;40.06
49825;BME280;35714;55.708;37.478;2023-11-22T07:56:58;99427.22;;;1.10;38.74
49825;BME280;35714;55.708;37.478;2023-11-22T07:59:24;99427.09;;;1.66;37.75
49825;BME280;35714;55.708;37.478;2023-11-22T08:01:49;99427.84;;;1.74;36.60
49825;BME280;35714;55.708;37.478;2023-11-22T08:04:15;99416.03;;;1.46;36.16
49825;BME280;35714;55.708;37.478;2023-11-22T08:06:44;99419.44;;;1.31;36.48
49825;BME280;35714;55.708;37.478;2023-11-22T08:09:11;99426.84;;;1.75;36.38
49825;BME280;35714;55.708;37.478;2023-11-22T08:11:37;99426.38;;;1.95;34.99
49825;BME280;35714;55.708;37.478;2023-11-22T08:14:03;99422.75;;;2.11;34.25
49825;BME280;35714;55.708;37.478;2023-11-22T08:16:29;99419.41;;;2.62;35.08
49825;BME280;35714;55.708;37.478;2023-11-22T08:18:55;99414.78;;;3.30;34.06
49825;BME280;35714;55.708;37.478;2023-11-22T08:21:23;99413.13;;;3.87;33.23
49825;BME280;35714;55.708;37.478;2023-11-22T08:23:49;99412.59;;;3.98;32.60
49825;BME280;35714;55.708;37.478;2023-11-22T08:26:15;99410.38;;;3.81;32.38
49825;BME280;35714;55.708;37.478;2023-11-22T08:28:42;99411.00;;;3.24;32.14
49825;BME280;35714;55.708;37.478;2023-11-22T08:31:08;99400.97;;;2.52;32.95
49825;BME280;35714;55.708;37.478;2023-11-22T08:33:38;99401.91;;;2.06;33.20
49825;BME280;35714;55.708;37.478;2023-11-22T08:36:06;99402.69;;;1.92;33.56
49825;BME280;35714;55.708;37.478;2023-11-22T08:38:32;99400.38;;;1.89;33.89
49825;BME280;35714;55.708;37.478;2023-11-22T08:41:04;99399.34;;;1.90;33.93
49825;BME280;35714;55.708;37.478;2023-11-22T08:43:34;99402.00;;;2.28;34.20
49825;BME280;35714;55.708;37.478;2023-11-22T08:46:01;99395.09;;;3.08;33.57
49825;BME280;35714;55.708;37.478;2023-11-22T08:48:31;99400.81;;;3.56;31.88
49825;BME280;35714;55.708;37.478;2023-11-22T08:50:57;99406.59;;;3.02;31.86
49825;BME280;35714;55.708;37.478;2023-11-22T08:53:23;99409.81;;;2.38;32.51
49825;BME280;35714;55.708;37.478;2023-11-22T08:55:48;99404.41;;;1.85;33.52
49825;BME280;35714;55.708;37.478;2023-11-22T08:58:14;99403.16;;;1.72;34.08
49825;BME280;35714;55.708;37.478;2023-11-22T09:00:41;99407.69;;;1.72;33.91
49825;BME280;35714;55.708;37.478;2023-11-22T09:03:11;99400.34;;;1.42;33.90
49825;BME280;35714;55.708;37.478;2023-11-22T09:05:39;99410.19;;;1.11;34.30
49825;BME280;35714;55.708;37.478;2023-11-22T09:08:06;99406.81;;;0.85;34.43
49825;BME280;35714;55.708;37.478;2023-11-22T09:10:32;99415.72;;;0.53;34.70
49825;BME280;35714;55.708;37.478;2023-11-22T09:12:58;99406.09;;;0.11;35.11
49825;BME280;35714;55.708;37.478;2023-11-22T09:15:27;99409.28;;;0.06;35.26
49825;BME280;35714;55.708;37.478;2023-11-22T09:17:55;99395.13;;;0.22;35.68
49825;BME280;35714;55.708;37.478;2023-11-22T09:20:21;99409.22;;;0.56;35.02
49825;BME280;35714;55.708;37.478;2023-11-22T09:22:49;99409.69;;;0.76;34.97
49825;BME280;35714;55.708;37.478;2023-11-22T09:25:20;99403.13;;;1.18;34.63
49825;BME280;35714;55.708;37.478;2023-11-22T09:27:49;99396.78;;;1.50;34.39
49825;BME280;35714;55.708;37.478;2023-11-22T09:30:21;99403.78;;;1.74;33.53
49825;BME280;35714;55.708;37.478;2023-11-22T09:33:10;99409.78;;;1.99;33.64
49825;BME280;35714;55.708;37.478;2023-11-22T09:35:37;99394.50;;;2.08;32.90
49825;BME280;35714;55.708;37.478;2023-11-22T09:38:06;99405.88;;;1.64;32.81
49825;BME280;35714;55.708;37.478;2023-11-22T09:40:35;99405.78;;;1.26;33.90
49825;BME280;35714;55.708;37.478;2023-11-22T09:43:02;99408.88;;;1.06;34.18
49825;BME280;35714;55.708;37.478;2023-11-22T09:45:29;99410.94;;;0.96;34.30
49825;BME280;35714;55.708;37.478;2023-11-22T09:47:56;99409.63;;;0.84;34.45
49825;BME280;35714;55.708;37.478;2023-11-22T09:50:40;99400.03;;;0.66;34.11
49825;BME280;35714;55.708;37.478;2023-11-22T09:53:11;99411.28;;;0.12;34.95
49825;BME280;35714;55.708;37.478;2023-11-22T09:55:41;99399.63;;;-0.20;35.50
49825;BME280;35714;55.708;37.478;2023-11-22T09:58:16;99401.97;;;-0.25;35.72
49825;BME280;35714;55.708;37.478;2023-11-22T10:00:43;99406.94;;;-0.38;35.64
49825;BME280;35714;55.708;37.478;2023-11-22T10:03:10;99405.41;;;-0.65;35.96
49825;BME280;35714;55.708;37.478;2023-11-22T10:05:42;99389.66;;;-1.01;36.77
49825;BME280;35714;55.708;37.478;2023-11-22T10:08:07;99398.56;;;-1.19;37.29
49825;BME280;35714;55.708;37.478;2023-11-22T10:10:36;99392.22;;;-1.26;37.40
49825;BME280;35714;55.708;37.478;2023-11-22T10:13:03;99395.47;;;-1.40;37.73
49825;BME280;35714;55.708;37.478;2023-11-22T10:15:29;99393.75;;;-1.50;38.20
49825;BME280;35714;55.708;37.478;2023-11-22T10:17:59;99386.31;;;-1.46;38.38
49825;BME280;35714;55.708;37.478;2023-11-22T10:23:09;99394.19;;;-1.28;38.17
49825;BME280;35714;55.708;37.478;2023-11-22T10:25:45;99395.78;;;-1.43;38.34
49825;BME280;35714;55.708;37.478;2023-11-22T10:28:13;99392.25;;;-1.78;38.51
49825;BME280;35714;55.708;37.478;2023-11-22T10:30:39;99393.69;;;-1.84;38.96
49825;BME280;35714;55.708;37.478;2023-11-22T10:33:12;99398.00;;;-1.91;39.36
49825;BME280;35714;55.708;37.478;2023-11-22T10:35:48;99394.72;;;-2.03;39.88
49825;BME280;35714;55.708;37.478;2023-11-22T10:38:15;99392.03;;;-2.11;39.99
49825;BME280;35714;55.708;37.478;2023-11-22T10:40:42;99404.03;;;-2.07;40.01
49825;BME280;35714;55.708;37.478;2023-11-22T10:43:14;99397.19;;;-2.10;40.02
49825;BME280;35714;55.708;37.478;2023-11-22T10:45:42;99404.63;;;-2.13;40.36
49825;BME280;35714;55.708;37.478;2023-11-22T10:48:15;99389.66;;;-2.14;40.65
49825;BME280;35714;55.708;37.478;2023-11-22T10:50:44;99396.66;;;-2.13;40.73
49825;BME280;35714;55.708;37.478;2023-11-22T10:53:16;99383.91;;;-2.10;40.94
49825;BME280;35714;55.708;37.478;2023-11-22T10:55:46;99397.03;;;-2.08;40.87
49825;BME280;35714;55.708;37.478;2023-11-22T10:58:14;99393.09;;;-2.04;40.82
49825;BME280;35714;55.708;37.478;2023-11-22T11:00:41;99399.38;;;-2.05;40.93
49825;BME280;35714;55.708;37.478;2023-11-22T11:03:14;99388.28;;;-2.19;41.67
49825;BME280;35714;55.708;37.478;2023-11-22T11:05:49;99392.78;;;-2.19;41.59
49825;BME280;35714;55.708;37.478;2023-11-22T11:08:17;99388.19;;;-2.35;41.66
49825;BME280;35714;55.708;37.478;2023-11-22T11:10:45;99391.16;;;-2.56;42.09
49825;BME280;35714;55.708;37.478;2023-11-22T11:13:12;99388.16;;;-2.71;42.48
49825;BME280;35714;55.708;37.478;2023-11-22T11:15:40;99384.13;;;-2.75;42.85
49825;BME280;35714;55.708;37.478;2023-11-22T11:18:07;99388.38;;;-2.82;42.94
49825;BME280;35714;55.708;37.478;2023-11-22T11:20:49;99379.34;;;-2.90;43.58
49825;BME280;35714;55.708;37.478;2023-11-22T11:23:18;99385.66;;;-2.91;43.68
49825;BME280;35714;55.708;37.478;2023-11-22T11:25:56;99383.75;;;-2.80;43.68
49825;BME280;35714;55.708;37.478;2023-11-22T11:28:25;99380.19;;;-2.89;43.60
49825;BME280;35714;55.708;37.478;2023-11-22T11:30:53;99382.59;;;-2.96;43.63
49825;BME280;35714;55.708;37.478;2023-11-22T11:33:32;99380.09;;;-2.97;43.55
49825;BME280;35714;55.708;37.478;2023-11-22T11:36:01;99391.28;;;-3.03;43.38
49825;BME280;35714;55.708;37.478;2023-11-22T11:38:34;99383.50;;;-3.05;43.28
49825;BME280;35714;55.708;37.478;2023-11-22T11:41:11;99382.72;;;-3.15;43.51
49825;BME280;35714;55.708;37.478;2023-11-22T11:43:42;99380.34;;;-3.18;43.75
49825;BME280;35714;55.708;37.478;2023-11-22T11:46:12;99385.66;;;-3.18;43.88
49825;BME280;35714;55.708;37.478;2023-11-22T11:48:42;99382.88;;;-3.17;44.03
49825;BME280;35714;55.708;37.478;2023-11-22T11:51:08;99382.56;;;-3.14;44.24
49825;BME280;35714;55.708;37.478;2023-11-22T11:53:34;99386.03;;;-3.13;44.04
49825;BME280;35714;55.708;37.478;2023-11-22T11:56:01;99378.44;;;-3.26;44.13
49825;BME280;35714;55.708;37.478;2023-11-22T11:58:27;99373.38;;;-3.47;44.56
49825;BME280;35714;55.708;37.478;2023-11-22T12:00:54;99385.69;;;-3.56;44.87
49825;BME280;35714;55.708;37.478;2023-11-22T12:03:21;99380.97;;;-3.62;45.41
49825;BME280;35714;55.708;37.478;2023-11-22T12:05:47;99382.53;;;-3.69;45.45
49825;BME280;35714;55.708;37.478;2023-11-22T12:08:17;99384.63;;;-3.73;45.40
49825;BME280;35714;55.708;37.478;2023-11-22T12:10:44;99391.75;;;-3.73;45.32
49825;BME280;35714;55.708;37.478;2023-11-22T12:13:21;99398.31;;;-3.87;45.44
49825;BME280;35714;55.708;37.478;2023-11-22T12:15:47;99395.00;;;-3.99;45.66
49825;BME280;35714;55.708;37.478;2023-11-22T12:18:13;99392.91;;;-3.95;46.07
49825;BME280;35714;55.708;37.478;2023-11-22T12:20:39;99401.97;;;-4.08;46.24
49825;BME280;35714;55.708;37.478;2023-11-22T12:23:05;99411.44;;;-4.15;46.23
49825;BME280;35714;55.708;37.478;2023-11-22T12:25:33;99401.16;;;-4.28;46.68
49825;BME280;35714;55.708;37.478;2023-11-22T12:27:59;99409.25;;;-4.29;46.59
49825;BME280;35714;55.708;37.478;2023-11-22T12:30:35;99415.66;;;-4.22;46.72
49825;BME280;35714;55.708;37.478;2023-11-22T12:33:05;99419.28;;;-4.23;46.51
49825;BME280;35714;55.708;37.478;2023-11-22T12:35:32;99427.78;;;-4.20;46.41
49825;BME280;35714;55.708;37.478;2023-11-22T12:38:02;99422.63;;;-4.21;46.64
49825;BME280;35714;55.708;37.478;2023-11-22T12:40:29;99428.06;;;-4.23;45.87
49825;BME280;35714;55.708;37.478;2023-11-22T12:43:00;99428.59;;;-4.39;45.72
49825;BME280;35714;55.708;37.478;2023-11-22T12:45:28;99429.88;;;-4.53;46.04
49825;BME280;35714;55.708;37.478;2023-11-22T12:47:56;99432.94;;;-4.57;46.02
49825;BME280;35714;55.708;37.478;2023-11-22T12:50:38;99432.88;;;-4.67;45.95
49825;BME280;35714;55.708;37.478;2023-11-22T12:53:15;99441.94;;;-4.79;46.19
49825;BME280;35714;55.708;37.478;2023-11-22T12:55:45;99434.81;;;-4.88;46.43